createdAt,value
2023-04-23T00:00:03.020Z,17.60
2023-04-23T00:01:03.050Z,17.55
2023-04-23T00:02:03.089Z,17.60
2023-04-23T00:03:03.138Z,17.58
2023-04-23T00:04:03.263Z,17.49
2023-04-23T00:05:03.252Z,17.57
2023-04-23T00:06:03.215Z,17.46
2023-04-23T00:07:03.286Z,17.38
2023-04-23T00:08:03.286Z,17.43
2023-04-23T00:09:03.319Z,17.45
2023-04-23T00:10:03.355Z,17.42
2023-04-23T00:11:03.379Z,17.32
2023-04-23T00:12:03.414Z,17.30
2023-04-23T00:13:03.478Z,17.35
2023-04-23T00:14:03.486Z,17.30
2023-04-23T00:15:03.541Z,17.30
2023-04-23T00:16:03.599Z,17.33
2023-04-23T00:17:03.596Z,17.40
2023-04-23T00:18:03.628Z,17.30
2023-04-23T00:19:03.667Z,17.35
2023-04-23T00:20:03.687Z,17.25
2023-04-23T00:21:03.755Z,17.27
2023-04-23T00:22:03.765Z,17.27
2023-04-23T00:23:03.796Z,17.21
2023-04-23T00:24:03.841Z,17.33
2023-04-23T00:25:03.867Z,17.30
2023-04-23T00:26:03.880Z,17.25
2023-04-23T00:27:03.942Z,17.15
2023-04-23T00:28:03.960Z,17.28
2023-04-23T00:29:03.999Z,17.21
2023-04-23T00:30:04.038Z,17.20
2023-04-23T00:31:04.087Z,17.27
2023-04-23T00:32:04.158Z,17.24
2023-04-23T00:33:04.141Z,17.25
2023-04-23T00:34:04.185Z,17.15
2023-04-23T00:35:04.237Z,17.22
2023-04-23T00:36:04.254Z,17.22
2023-04-23T00:37:04.276Z,17.21
2023-04-23T00:38:04.311Z,17.27
2023-04-23T00:39:04.348Z,17.15
2023-04-23T00:40:04.377Z,17.17
2023-04-23T00:41:04.422Z,17.25
2023-04-23T00:42:04.436Z,17.20
2023-04-23T00:43:04.472Z,17.21
2023-04-23T00:44:04.508Z,17.21
2023-04-23T00:45:04.541Z,17.27
2023-04-23T00:46:04.614Z,17.25
2023-04-23T00:47:04.615Z,17.20
2023-04-23T00:48:04.658Z,17.24
2023-04-23T00:49:04.691Z,17.21
2023-04-23T00:50:04.717Z,17.21
2023-04-23T00:51:04.771Z,17.22
2023-04-23T00:52:04.821Z,17.09
2023-04-23T00:53:04.821Z,17.05
2023-04-23T00:54:04.866Z,17.03
2023-04-23T00:55:04.894Z,17.09
2023-04-23T00:56:04.928Z,17.21
2023-04-23T00:57:04.960Z,17.20
2023-04-23T00:58:04.985Z,17.07
2023-04-23T00:59:05.030Z,17.14
2023-04-23T01:00:05.059Z,17.15
2023-04-23T01:01:05.170Z,17.10
2023-04-23T01:02:05.231Z,17.09
2023-04-23T01:03:05.325Z,16.92
2023-04-23T01:04:05.482Z,16.96
2023-04-23T01:05:05.231Z,17.03
2023-04-23T01:06:05.274Z,17.05
2023-04-23T01:07:05.302Z,17.03
2023-04-23T01:08:05.336Z,16.98
2023-04-23T01:09:05.371Z,17.05
2023-04-23T01:10:05.418Z,17.09
2023-04-23T01:11:05.442Z,17.10
2023-04-23T01:12:05.478Z,17.07
2023-04-23T01:13:05.494Z,17.06
2023-04-23T01:14:05.538Z,17.00
2023-04-23T01:15:05.584Z,16.98
2023-04-23T01:16:05.608Z,16.99
2023-04-23T01:17:05.724Z,16.96
2023-04-23T01:18:05.671Z,16.91
2023-04-23T01:19:05.716Z,16.88
2023-04-23T01:20:05.754Z,16.82
2023-04-23T01:21:05.802Z,16.90
2023-04-23T01:22:05.816Z,16.91
2023-04-23T01:23:05.899Z,16.91
2023-04-23T01:24:05.884Z,17.02
2023-04-23T01:25:05.952Z,16.91
2023-04-23T01:26:05.960Z,17.00
2023-04-23T01:27:05.998Z,16.90
2023-04-23T01:28:06.070Z,16.95
2023-04-23T01:29:06.074Z,16.84
2023-04-23T01:30:06.128Z,16.88
2023-04-23T01:31:06.143Z,16.81
2023-04-23T01:32:06.153Z,16.85
2023-04-23T01:33:06.200Z,16.87
2023-04-23T01:34:06.226Z,16.90
2023-04-23T01:35:06.276Z,16.87
2023-04-23T01:36:06.276Z,16.92
2023-04-23T01:37:06.325Z,16.84
2023-04-23T01:38:06.358Z,16.84
2023-04-23T01:39:06.402Z,16.80
2023-04-23T01:40:09.323Z,16.85
2023-04-23T01:41:06.463Z,16.90
2023-04-23T01:42:06.501Z,16.88
2023-04-23T01:43:06.537Z,16.72
2023-04-23T01:44:06.566Z,16.70
2023-04-23T01:45:06.620Z,16.84
2023-04-23T01:46:06.654Z,16.70
2023-04-23T01:47:07.226Z,16.80
2023-04-23T01:48:06.716Z,16.78
2023-04-23T01:49:06.736Z,16.81
2023-04-23T01:50:06.761Z,16.75
2023-04-23T01:51:06.793Z,16.72
2023-04-23T01:52:06.847Z,16.78
2023-04-23T01:53:06.869Z,16.73
2023-04-23T01:54:06.909Z,16.67
2023-04-23T01:55:06.939Z,16.70
2023-04-23T01:56:06.973Z,16.67
2023-04-23T01:57:06.997Z,16.57
2023-04-23T01:58:07.043Z,16.54
2023-04-23T01:59:07.079Z,16.63
2023-04-23T02:00:07.112Z,16.60
2023-04-23T02:01:07.148Z,16.65
2023-04-23T02:02:07.291Z,16.57
2023-04-23T02:03:07.379Z,16.55
2023-04-23T02:04:07.280Z,16.50
2023-04-23T02:05:07.281Z,16.51
2023-04-23T02:06:07.304Z,16.51
2023-04-23T02:07:07.341Z,16.54
2023-04-23T02:08:07.391Z,16.51
2023-04-23T02:09:07.403Z,16.48
2023-04-23T02:10:07.445Z,16.45
2023-04-23T02:11:07.481Z,16.54
2023-04-23T02:12:07.504Z,16.50
2023-04-23T02:13:07.550Z,16.45
2023-04-23T02:14:07.576Z,16.42
2023-04-23T02:15:07.628Z,16.33
2023-04-23T02:16:07.736Z,16.33
2023-04-23T02:17:07.670Z,16.26
2023-04-23T02:18:07.716Z,16.29
2023-04-23T02:19:07.754Z,16.22
2023-04-23T02:20:07.787Z,16.11
2023-04-23T02:21:07.846Z,16.10
2023-04-23T02:22:07.846Z,16.07
2023-04-23T02:23:07.890Z,15.96
2023-04-23T02:24:07.919Z,15.91
2023-04-23T02:25:07.953Z,15.86
2023-04-23T02:26:07.996Z,15.74
2023-04-23T02:27:08.060Z,15.88
2023-04-23T02:28:08.049Z,15.93
2023-04-23T02:29:08.085Z,15.86
2023-04-23T02:30:08.113Z,15.76
2023-04-23T02:31:08.198Z,15.80
2023-04-23T02:32:08.175Z,15.76
2023-04-23T02:33:08.221Z,15.76
2023-04-23T02:34:08.267Z,15.71
2023-04-23T02:35:08.289Z,15.74
2023-04-23T02:36:08.327Z,15.80
2023-04-23T02:37:08.360Z,15.77
2023-04-23T02:38:08.388Z,15.74
2023-04-23T02:39:08.548Z,15.71
2023-04-23T02:40:08.468Z,15.74
2023-04-23T02:41:08.508Z,15.73
2023-04-23T02:42:08.547Z,15.71
2023-04-23T02:43:08.578Z,15.80
2023-04-23T02:44:08.595Z,15.78
2023-04-23T02:45:08.613Z,15.74
2023-04-23T02:46:08.837Z,15.80
2023-04-23T02:47:08.689Z,15.74
2023-04-23T02:48:08.718Z,15.73
2023-04-23T02:49:08.763Z,15.81
2023-04-23T02:50:08.796Z,15.80
2023-04-23T02:51:08.823Z,15.81
2023-04-23T02:52:08.856Z,15.81
2023-04-23T02:53:08.913Z,15.88
2023-04-23T02:54:08.920Z,15.86
2023-04-23T02:55:08.946Z,15.91
2023-04-23T02:56:08.989Z,15.98
2023-04-23T02:57:09.031Z,15.85
2023-04-23T02:58:09.113Z,15.91
2023-04-23T02:59:09.097Z,15.86
2023-04-23T03:00:09.122Z,15.92
2023-04-23T03:01:09.240Z,15.88
2023-04-23T03:02:09.268Z,15.92
2023-04-23T03:03:11.109Z,15.96
2023-04-23T03:04:09.340Z,15.91
2023-04-23T03:05:09.302Z,15.89
2023-04-23T03:06:09.336Z,15.88
2023-04-23T03:07:09.359Z,15.88
2023-04-23T03:08:09.392Z,15.91
2023-04-23T03:09:09.423Z,15.96
2023-04-23T03:10:09.459Z,15.78
2023-04-23T03:11:09.495Z,15.80
2023-04-23T03:12:09.522Z,15.81
2023-04-23T03:13:09.556Z,15.89
2023-04-23T03:14:09.592Z,15.84
2023-04-23T03:15:09.609Z,15.88
2023-04-23T03:16:09.651Z,15.91
2023-04-23T03:17:09.698Z,15.98
2023-04-23T03:18:09.721Z,16.01
2023-04-23T03:19:09.758Z,15.91
2023-04-23T03:20:09.795Z,15.96
2023-04-23T03:21:09.807Z,15.98
2023-04-23T03:22:09.931Z,15.99
2023-04-23T03:23:09.889Z,15.99
2023-04-23T03:24:09.925Z,16.11
2023-04-23T03:25:09.954Z,16.01
2023-04-23T03:26:09.996Z,16.08
2023-04-23T03:27:10.030Z,16.10
2023-04-23T03:28:10.067Z,16.03
2023-04-23T03:29:10.080Z,16.04
2023-04-23T03:30:10.119Z,16.04
2023-04-23T03:31:10.280Z,16.08
2023-04-23T03:32:10.195Z,16.08
2023-04-23T03:33:10.237Z,16.07
2023-04-23T03:34:10.261Z,15.99
2023-04-23T03:35:10.294Z,16.06
2023-04-23T03:36:10.354Z,16.06
2023-04-23T03:37:10.359Z,16.17
2023-04-23T03:38:10.396Z,16.13
2023-04-23T03:39:10.436Z,16.10
2023-04-23T03:40:10.470Z,16.10
2023-04-23T03:41:10.504Z,16.16
2023-04-23T03:42:10.526Z,16.17
2023-04-23T03:43:10.565Z,16.18
2023-04-23T03:44:10.608Z,16.18
2023-04-23T03:45:10.618Z,16.14
2023-04-23T03:46:10.671Z,16.11
2023-04-23T03:47:10.685Z,16.14
2023-04-23T03:48:10.727Z,16.08
2023-04-23T03:49:10.764Z,16.23
2023-04-23T03:50:10.792Z,16.16
2023-04-23T03:51:10.835Z,16.17
2023-04-23T03:52:10.874Z,16.17
2023-04-23T03:53:10.895Z,16.26
2023-04-23T03:54:10.934Z,16.08
2023-04-23T03:55:10.966Z,16.10
2023-04-23T03:56:10.995Z,16.17
2023-04-23T03:57:11.038Z,16.03
2023-04-23T03:58:11.072Z,15.99
2023-04-23T03:59:11.135Z,16.13
2023-04-23T04:00:11.129Z,16.10
2023-04-23T04:01:11.157Z,16.13
2023-04-23T04:02:11.272Z,16.16
2023-04-23T04:03:11.352Z,16.22
2023-04-23T04:04:11.523Z,16.18
2023-04-23T04:05:11.786Z,16.16
2023-04-23T04:06:11.330Z,16.25
2023-04-23T04:07:11.377Z,16.26
2023-04-23T04:08:11.403Z,16.18
2023-04-23T04:09:11.438Z,16.14
2023-04-23T04:10:11.468Z,16.11
2023-04-23T04:11:11.509Z,16.17
2023-04-23T04:12:11.534Z,16.22
2023-04-23T04:13:11.581Z,16.10
2023-04-23T04:14:11.611Z,16.11
2023-04-23T04:15:11.648Z,16.13
2023-04-23T04:16:11.701Z,16.18
2023-04-23T04:17:11.712Z,16.17
2023-04-23T04:18:11.736Z,16.17
2023-04-23T04:19:11.774Z,16.18
2023-04-23T04:20:11.847Z,16.18
2023-04-23T04:21:11.837Z,16.18
2023-04-23T04:22:11.872Z,16.18
2023-04-23T04:23:11.909Z,16.11
2023-04-23T04:24:11.956Z,16.18
2023-04-23T04:25:11.975Z,16.17
2023-04-23T04:26:12.002Z,16.08
2023-04-23T04:27:12.045Z,16.26
2023-04-23T04:28:12.078Z,16.14
2023-04-23T04:29:12.114Z,16.16
2023-04-23T04:30:12.122Z,16.10
2023-04-23T04:31:12.205Z,16.16
2023-04-23T04:32:12.197Z,16.10
2023-04-23T04:33:12.263Z,16.10
2023-04-23T04:34:12.273Z,16.13
2023-04-23T04:35:12.314Z,16.13
2023-04-23T04:36:12.338Z,16.04
2023-04-23T04:37:12.372Z,16.16
2023-04-23T04:38:12.406Z,16.10
2023-04-23T04:39:12.438Z,16.10
2023-04-23T04:40:12.470Z,16.14
2023-04-23T04:41:12.516Z,16.11
2023-04-23T04:42:12.537Z,16.14
2023-04-23T04:43:12.574Z,16.14
2023-04-23T04:44:12.591Z,16.25
2023-04-23T04:45:12.647Z,16.14
2023-04-23T04:46:12.683Z,16.13
2023-04-23T04:47:12.707Z,16.11
2023-04-23T04:48:12.744Z,16.10
2023-04-23T04:49:12.846Z,16.17
2023-04-23T04:50:12.832Z,16.11
2023-04-23T04:51:12.836Z,16.13
2023-04-23T04:52:12.869Z,16.10
2023-04-23T04:53:12.900Z,16.07
2023-04-23T04:54:12.941Z,16.11
2023-04-23T04:55:12.989Z,16.11
2023-04-23T04:56:13.004Z,16.10
2023-04-23T04:57:13.047Z,16.10
2023-04-23T04:58:13.103Z,16.11
2023-04-23T04:59:13.111Z,16.11
2023-04-23T05:00:13.125Z,16.10
2023-04-23T05:01:13.209Z,16.13
2023-04-23T05:02:13.274Z,16.13
2023-04-23T05:03:14.311Z,16.04
2023-04-23T05:04:13.359Z,15.95
2023-04-23T05:05:13.309Z,16.06
2023-04-23T05:06:13.359Z,16.03
2023-04-23T05:07:13.376Z,16.10
2023-04-23T05:08:13.408Z,15.98
2023-04-23T05:09:13.477Z,16.08
2023-04-23T05:10:13.481Z,16.10
2023-04-23T05:11:13.514Z,16.10
2023-04-23T05:12:13.568Z,16.07
2023-04-23T05:13:13.565Z,16.06
2023-04-23T05:14:13.612Z,16.08
2023-04-23T05:15:13.633Z,16.07
2023-04-23T05:16:13.692Z,16.04
2023-04-23T05:17:13.709Z,16.07
2023-04-23T05:18:13.749Z,16.01
2023-04-23T05:19:13.777Z,16.11
2023-04-23T05:20:13.890Z,16.16
2023-04-23T05:21:13.846Z,16.08
2023-04-23T05:22:13.883Z,16.17
2023-04-23T05:23:13.935Z,16.22
2023-04-23T05:24:13.956Z,16.11
2023-04-23T05:25:13.989Z,16.13
2023-04-23T05:26:14.013Z,16.16
2023-04-23T05:27:14.053Z,16.16
2023-04-23T05:28:14.084Z,16.16
2023-04-23T05:29:14.116Z,16.16
2023-04-23T05:30:14.161Z,16.17
2023-04-23T05:31:14.203Z,16.25
2023-04-23T05:32:14.244Z,16.26
2023-04-23T05:33:14.247Z,16.16
2023-04-23T05:34:14.278Z,16.25
2023-04-23T05:35:14.319Z,16.17
2023-04-23T05:36:14.353Z,16.17
2023-04-23T05:37:14.378Z,16.23
2023-04-23T05:38:14.411Z,16.32
2023-04-23T05:39:14.448Z,16.25
2023-04-23T05:40:14.467Z,16.23
2023-04-23T05:41:14.516Z,16.26
2023-04-23T05:42:14.549Z,16.27
2023-04-23T05:43:14.777Z,16.33
2023-04-23T05:44:14.616Z,16.33
2023-04-23T05:45:14.647Z,16.29
2023-04-23T05:46:14.715Z,16.29
2023-04-23T05:47:14.735Z,16.23
2023-04-23T05:48:14.745Z,16.17
2023-04-23T05:49:14.775Z,16.17
2023-04-23T05:50:14.808Z,16.29
2023-04-23T05:51:14.832Z,16.18
2023-04-23T05:52:14.894Z,16.14
2023-04-23T05:53:14.922Z,16.11
2023-04-23T05:54:14.944Z,16.08
2023-04-23T05:55:14.980Z,16.16
2023-04-23T05:56:15.030Z,16.18
2023-04-23T05:57:15.044Z,16.07
2023-04-23T05:58:15.088Z,16.11
2023-04-23T05:59:15.110Z,16.13
2023-04-23T06:00:15.165Z,16.14
2023-04-23T06:01:15.362Z,16.23
2023-04-23T06:02:15.224Z,16.16
2023-04-23T06:03:15.477Z,16.13
2023-04-23T06:04:15.575Z,16.22
2023-04-23T06:05:15.542Z,16.07
2023-04-23T06:06:15.351Z,16.08
2023-04-23T06:07:15.412Z,16.10
2023-04-23T06:08:15.407Z,16.22
2023-04-23T06:09:15.445Z,16.17
2023-04-23T06:10:15.473Z,16.14
2023-04-23T06:11:15.539Z,16.22
2023-04-23T06:12:15.543Z,16.16
2023-04-23T06:13:15.581Z,16.22
2023-04-23T06:14:15.609Z,16.14
2023-04-23T06:15:15.650Z,16.11
2023-04-23T06:16:15.722Z,16.18
2023-04-23T06:17:15.718Z,16.23
2023-04-23T06:18:15.770Z,16.17
2023-04-23T06:19:15.783Z,16.23
2023-04-23T06:20:15.803Z,16.16
2023-04-23T06:21:16.104Z,16.23
2023-04-23T06:22:15.878Z,16.32
2023-04-23T06:23:15.927Z,16.22
2023-04-23T06:24:15.954Z,16.27
2023-04-23T06:25:15.996Z,16.26
2023-04-23T06:26:16.011Z,16.22
2023-04-23T06:27:16.046Z,16.27
2023-04-23T06:28:16.182Z,16.29
2023-04-23T06:29:16.116Z,16.25
2023-04-23T06:30:16.155Z,16.26
2023-04-23T06:31:16.243Z,16.25
2023-04-23T06:32:18.370Z,16.34
2023-04-23T06:33:16.247Z,16.30
2023-04-23T06:34:16.268Z,16.36
2023-04-23T06:35:16.310Z,16.30
2023-04-23T06:36:16.334Z,16.34
2023-04-23T06:37:16.382Z,16.34
2023-04-23T06:38:16.432Z,16.30
2023-04-23T06:39:16.461Z,16.30
2023-04-23T06:40:16.479Z,16.18
2023-04-23T06:41:16.515Z,16.16
2023-04-23T06:42:16.568Z,16.11
2023-04-23T06:43:16.588Z,16.08
2023-04-23T06:44:16.616Z,16.14
2023-04-23T06:45:16.650Z,16.23
2023-04-23T06:46:16.681Z,16.30
2023-04-23T06:47:16.719Z,16.40
2023-04-23T06:48:16.797Z,16.41
2023-04-23T06:49:16.785Z,16.48
2023-04-23T06:50:16.823Z,16.44
2023-04-23T06:51:16.856Z,16.57
2023-04-23T06:52:16.889Z,16.60
2023-04-23T06:53:16.914Z,16.51
2023-04-23T06:54:16.946Z,16.65
2023-04-23T06:55:16.977Z,16.65
2023-04-23T06:56:17.029Z,16.52
2023-04-23T06:57:17.063Z,16.54
2023-04-23T06:58:17.085Z,16.54
2023-04-23T06:59:17.128Z,16.37
2023-04-23T07:00:17.155Z,16.52
2023-04-23T07:01:17.279Z,16.47
2023-04-23T07:02:17.288Z,16.52
2023-04-23T07:03:17.287Z,16.62
2023-04-23T07:04:17.385Z,16.54
2023-04-23T07:05:17.328Z,16.54
2023-04-23T07:06:17.360Z,16.42
2023-04-23T07:07:17.393Z,16.41
2023-04-23T07:08:17.427Z,16.33
2023-04-23T07:09:17.464Z,16.29
2023-04-23T07:10:18.106Z,16.13
2023-04-23T07:11:17.537Z,16.07
2023-04-23T07:12:17.564Z,16.07
2023-04-23T07:13:17.593Z,15.99
2023-04-23T07:14:17.629Z,15.98
2023-04-23T07:15:17.692Z,16.01
2023-04-23T07:16:19.169Z,15.84
2023-04-23T07:17:17.736Z,15.88
2023-04-23T07:18:17.774Z,15.80
2023-04-23T07:19:17.806Z,15.76
2023-04-23T07:20:17.844Z,15.64
2023-04-23T07:21:17.873Z,15.70
2023-04-23T07:22:17.953Z,15.67
2023-04-23T07:23:17.949Z,15.73
2023-04-23T07:24:17.978Z,15.74
2023-04-23T07:25:18.012Z,15.73
2023-04-23T07:26:18.057Z,15.81
2023-04-23T07:27:18.083Z,15.74
2023-04-23T07:28:18.110Z,15.80
2023-04-23T07:29:18.145Z,15.80
2023-04-23T07:30:18.174Z,15.86
2023-04-23T07:31:18.225Z,15.74
2023-04-23T07:32:18.294Z,15.73
2023-04-23T07:33:18.285Z,15.73
2023-04-23T07:34:18.321Z,15.73
2023-04-23T07:35:18.363Z,15.70
2023-04-23T07:36:18.443Z,15.58
2023-04-23T07:37:18.426Z,15.55
2023-04-23T07:38:18.473Z,15.60
2023-04-23T07:39:18.486Z,15.60
2023-04-23T07:40:18.526Z,15.60
2023-04-23T07:41:18.553Z,15.60
2023-04-23T07:42:18.585Z,15.58
2023-04-23T07:43:18.623Z,15.52
2023-04-23T07:44:18.648Z,15.59
2023-04-23T07:45:18.678Z,15.73
2023-04-23T07:46:18.752Z,15.73
2023-04-23T07:47:18.756Z,15.70
2023-04-23T07:48:18.785Z,15.68
2023-04-23T07:49:18.811Z,15.64
2023-04-23T07:50:18.846Z,15.60
2023-04-23T07:51:18.900Z,15.64
2023-04-23T07:52:18.909Z,15.73
2023-04-23T07:53:18.985Z,15.77
2023-04-23T07:54:18.978Z,15.77
2023-04-23T07:55:19.008Z,15.77
2023-04-23T07:56:19.040Z,15.86
2023-04-23T07:57:19.065Z,15.76
2023-04-23T07:58:19.107Z,15.68
2023-04-23T07:59:19.154Z,15.67
2023-04-23T08:00:19.173Z,15.85
2023-04-23T08:01:19.219Z,15.86
2023-04-23T08:02:19.309Z,15.86
2023-04-23T08:03:19.544Z,15.88
2023-04-23T08:04:19.665Z,15.77
2023-04-23T08:05:19.366Z,15.78
2023-04-23T08:06:19.398Z,15.66
2023-04-23T08:07:19.421Z,15.70
2023-04-23T08:08:19.485Z,15.74
2023-04-23T08:09:19.484Z,15.85
2023-04-23T08:10:19.512Z,15.88
2023-04-23T08:11:19.547Z,15.88
2023-04-23T08:12:19.575Z,15.88
2023-04-23T08:13:19.609Z,15.96
2023-04-23T08:14:19.656Z,15.98
2023-04-23T08:15:19.685Z,15.89
2023-04-23T08:16:19.869Z,15.98
2023-04-23T08:17:19.749Z,15.95
2023-04-23T08:18:19.792Z,15.98
2023-04-23T08:19:19.811Z,15.98
2023-04-23T08:20:19.853Z,15.96
2023-04-23T08:21:19.886Z,15.91
2023-04-23T08:22:20.942Z,15.86
2023-04-23T08:23:19.954Z,15.80
2023-04-23T08:24:19.977Z,15.86
2023-04-23T08:25:20.033Z,15.91
2023-04-23T08:26:20.040Z,15.85
2023-04-23T08:27:20.096Z,15.78
2023-04-23T08:28:20.126Z,15.74
2023-04-23T08:29:20.148Z,15.74
2023-04-23T08:30:20.176Z,15.78
2023-04-23T08:31:26.582Z,15.84
2023-04-23T08:32:20.360Z,15.91
2023-04-23T08:33:20.277Z,15.96
2023-04-23T08:34:20.299Z,16.04
2023-04-23T08:35:20.351Z,16.07
2023-04-23T08:36:20.374Z,16.08
2023-04-23T08:37:30.432Z,16.11
2023-04-23T08:38:20.457Z,16.47
2023-04-23T08:39:20.496Z,16.37
2023-04-23T08:40:20.537Z,16.25
2023-04-23T08:41:20.546Z,16.11
2023-04-23T08:42:20.584Z,16.17
2023-04-23T08:43:20.642Z,16.08
2023-04-23T08:44:20.656Z,16.08
2023-04-23T08:45:20.720Z,16.08
2023-04-23T08:46:20.726Z,16.06
2023-04-23T08:47:20.732Z,16.07
2023-04-23T08:48:20.788Z,16.08
2023-04-23T08:49:20.817Z,16.10
2023-04-23T08:50:20.865Z,16.11
2023-04-23T08:51:20.880Z,16.08
2023-04-23T08:52:20.902Z,15.98
2023-04-23T08:53:20.944Z,16.01
2023-04-23T08:54:21.079Z,16.07
2023-04-23T08:55:21.098Z,16.10
2023-04-23T08:56:21.155Z,16.03
2023-04-23T08:57:21.233Z,16.07
2023-04-23T08:58:21.194Z,16.10
2023-04-23T08:59:21.250Z,16.08
2023-04-23T09:00:21.602Z,16.14
2023-04-23T09:01:21.332Z,16.11
2023-04-23T09:02:21.390Z,16.11
2023-04-23T09:03:21.411Z,16.10
2023-04-23T09:04:21.310Z,16.14
2023-04-23T09:05:21.344Z,16.03
2023-04-23T09:06:21.382Z,15.98
2023-04-23T09:07:21.414Z,15.86
2023-04-23T09:08:21.565Z,15.88
2023-04-23T09:09:21.479Z,15.77
2023-04-23T09:10:21.509Z,15.71
2023-04-23T09:11:21.558Z,15.73
2023-04-23T09:12:21.589Z,15.76
2023-04-23T09:13:21.600Z,15.78
2023-04-23T09:14:21.650Z,15.73
2023-04-23T09:15:21.724Z,15.71
2023-04-23T09:16:21.744Z,15.71
2023-04-23T09:17:21.752Z,15.76
2023-04-23T09:18:21.784Z,15.70
2023-04-23T09:19:21.812Z,15.68
2023-04-23T09:20:21.855Z,15.68
2023-04-23T09:21:21.881Z,15.76
2023-04-23T09:22:21.908Z,15.78
2023-04-23T09:23:21.951Z,15.81
2023-04-23T09:24:21.981Z,15.78
2023-04-23T09:25:22.016Z,15.81
2023-04-23T09:26:22.057Z,15.80
2023-04-23T09:27:22.086Z,15.77
2023-04-23T09:28:22.109Z,15.88
2023-04-23T09:29:22.156Z,15.76
2023-04-23T09:30:22.236Z,15.67
2023-04-23T09:31:22.220Z,15.67
2023-04-23T09:32:22.348Z,15.62
2023-04-23T09:33:22.285Z,15.60
2023-04-23T09:34:22.324Z,15.64
2023-04-23T09:35:22.427Z,15.53
2023-04-23T09:36:22.382Z,15.59
2023-04-23T09:37:22.410Z,15.53
2023-04-23T09:38:22.462Z,15.62
2023-04-23T09:39:22.505Z,15.64
2023-04-23T09:40:22.520Z,15.80
2023-04-23T09:41:22.548Z,15.84
2023-04-23T09:42:22.583Z,15.80
2023-04-23T09:43:22.610Z,15.74
2023-04-23T09:44:22.847Z,15.70
2023-04-23T09:45:22.703Z,15.60
2023-04-23T09:46:22.777Z,15.60
2023-04-23T09:47:25.106Z,15.53
2023-04-23T09:48:22.799Z,15.56
2023-04-23T09:49:22.812Z,15.58
2023-04-23T09:50:22.844Z,15.60
2023-04-23T09:51:22.880Z,15.53
2023-04-23T09:52:22.909Z,15.49
2023-04-23T09:53:22.941Z,15.46
2023-04-23T09:54:22.977Z,15.51
2023-04-23T09:55:23.024Z,15.64
2023-04-23T09:56:23.046Z,15.58
2023-04-23T09:57:23.069Z,15.52
2023-04-23T09:58:23.108Z,15.58
2023-04-23T09:59:32.145Z,15.60
2023-04-23T10:00:23.316Z,15.53
2023-04-23T10:01:23.219Z,15.62
2023-04-23T10:02:23.383Z,15.62
2023-04-23T10:03:23.426Z,15.51
2023-04-23T10:04:23.530Z,15.56
2023-04-23T10:05:24.757Z,15.59
2023-04-23T10:06:40.833Z,15.62
2023-04-23T10:07:23.403Z,15.53
2023-04-23T10:08:23.441Z,15.66
2023-04-23T10:09:23.464Z,15.59
2023-04-23T10:10:23.503Z,15.59
2023-04-23T10:11:23.538Z,15.58
2023-04-23T10:13:23.612Z,15.62
2023-04-23T10:14:23.639Z,15.60
2023-04-23T10:15:23.687Z,15.67
2023-04-23T10:16:26.858Z,15.60
2023-04-23T10:17:23.778Z,15.64
2023-04-23T10:18:23.775Z,15.59
2023-04-23T10:19:23.824Z,15.60
2023-04-23T10:20:23.878Z,15.56
2023-04-23T10:21:23.868Z,15.52
2023-04-23T10:22:23.913Z,15.56
2023-04-23T10:23:23.927Z,15.64
2023-04-23T10:24:23.956Z,15.52
2023-04-23T10:25:23.997Z,15.58
2023-04-23T10:26:24.042Z,15.58
2023-04-23T10:27:33.484Z,15.58
2023-04-23T10:28:24.114Z,15.62
2023-04-23T10:29:24.135Z,15.67
2023-04-23T10:30:24.179Z,15.68
2023-04-23T10:31:24.247Z,15.66
2023-04-23T10:32:24.273Z,15.71
2023-04-23T10:34:24.341Z,15.73
2023-04-23T10:35:24.343Z,15.71
2023-04-23T10:36:24.380Z,15.77
2023-04-23T10:37:24.397Z,15.81
2023-04-23T10:38:24.490Z,15.84
2023-04-23T10:39:44.416Z,15.77
2023-04-23T10:40:24.517Z,15.76
2023-04-23T10:41:24.539Z,15.84
2023-04-23T10:42:24.584Z,15.84
2023-04-23T10:43:24.614Z,15.89
2023-04-23T10:44:44.950Z,15.81
2023-04-23T10:45:25.881Z,15.91
2023-04-23T10:46:24.733Z,15.89
2023-04-23T10:47:24.801Z,15.89
2023-04-23T10:48:24.792Z,15.96
2023-04-23T10:49:24.794Z,15.99
2023-04-23T10:50:24.863Z,15.98
2023-04-23T10:52:10.164Z,16.04
2023-04-23T10:52:26.016Z,16.14
2023-04-23T10:53:24.929Z,16.18
2023-04-23T10:54:24.973Z,16.29
2023-04-23T10:55:25.040Z,16.36
2023-04-23T10:56:25.037Z,16.41
2023-04-23T10:57:25.063Z,16.50
2023-04-23T10:58:25.112Z,16.51
2023-04-23T10:59:25.152Z,16.54
2023-04-23T11:00:25.171Z,16.70
2023-04-23T11:01:25.259Z,16.70
2023-04-23T11:02:25.382Z,16.91
2023-04-23T11:03:25.470Z,16.87
2023-04-23T11:04:25.551Z,16.95
2023-04-23T11:05:25.327Z,16.95
2023-04-23T11:06:25.372Z,16.96
2023-04-23T11:07:25.415Z,16.98
2023-04-23T11:08:25.444Z,16.90
2023-04-23T11:09:25.476Z,16.96
2023-04-23T11:10:25.518Z,16.90
2023-04-23T11:11:25.545Z,16.91
2023-04-23T11:12:25.582Z,16.98
2023-04-23T11:13:25.612Z,16.90
2023-04-23T11:14:25.648Z,16.90
2023-04-23T11:15:25.693Z,16.91
2023-04-23T11:16:25.835Z,16.88
2023-04-23T11:17:25.819Z,16.78
2023-04-23T11:18:25.771Z,16.77
2023-04-23T11:19:25.808Z,16.66
2023-04-23T11:20:25.840Z,16.75
2023-04-23T11:21:25.883Z,16.70
2023-04-23T11:22:25.916Z,16.80
2023-04-23T11:23:25.949Z,16.77
2023-04-23T11:24:25.985Z,16.85
2023-04-23T11:25:26.060Z,16.88
2023-04-23T11:26:26.054Z,16.87
2023-04-23T11:27:26.101Z,16.88
2023-04-23T11:28:26.119Z,16.90
2023-04-23T11:29:26.183Z,16.96
2023-04-23T11:30:26.192Z,16.98
2023-04-23T11:31:26.249Z,17.00
2023-04-23T11:32:26.444Z,17.14
2023-04-23T11:33:26.392Z,17.14
2023-04-23T11:34:26.382Z,17.24
2023-04-23T11:35:26.372Z,17.22
2023-04-23T11:36:26.397Z,17.21
2023-04-23T11:37:26.424Z,17.09
2023-04-23T11:38:26.465Z,16.96
2023-04-23T11:39:26.494Z,16.90
2023-04-23T11:40:26.605Z,16.99
2023-04-23T11:41:26.566Z,16.92
2023-04-23T11:42:26.599Z,16.90
2023-04-23T11:43:26.631Z,16.96
2023-04-23T11:44:26.672Z,17.07
2023-04-23T11:45:26.718Z,17.05
2023-04-23T11:46:26.778Z,17.07
2023-04-23T11:47:26.775Z,17.10
2023-04-23T11:48:26.803Z,17.07
2023-04-23T11:49:26.838Z,17.20
2023-04-23T11:50:26.873Z,17.20
2023-04-23T11:51:26.960Z,17.40
2023-04-23T11:52:26.932Z,17.51
2023-04-23T11:53:26.976Z,17.55
2023-04-23T11:54:27.012Z,17.53
2023-04-23T11:55:27.040Z,17.49
2023-04-23T11:56:27.071Z,17.70
2023-04-23T11:57:27.102Z,17.80
2023-04-23T11:58:27.140Z,17.84
2023-04-23T11:59:27.175Z,17.84
2023-04-23T12:00:27.212Z,17.89
2023-04-23T12:01:27.261Z,18.20
2023-04-23T12:02:27.363Z,18.26
2023-04-23T12:03:27.462Z,18.39
2023-04-23T12:04:27.449Z,18.42
2023-04-23T12:05:27.387Z,18.49
2023-04-23T12:06:27.429Z,18.60
2023-04-23T12:07:27.451Z,18.75
2023-04-23T12:08:27.497Z,18.65
2023-04-23T12:09:27.530Z,18.69
2023-04-23T12:10:27.558Z,18.82
2023-04-23T12:11:27.598Z,18.89
2023-04-23T12:12:27.623Z,18.96
2023-04-23T12:13:27.659Z,19.17
2023-04-23T12:14:27.712Z,19.28
2023-04-23T12:15:27.737Z,19.30
2023-04-23T12:16:27.865Z,19.38
2023-04-23T12:17:27.833Z,19.38
2023-04-23T12:18:27.828Z,19.28
2023-04-23T12:19:27.866Z,19.31
2023-04-23T12:20:27.897Z,19.46
2023-04-23T12:21:27.932Z,19.47
2023-04-23T12:22:27.996Z,19.46
2023-04-23T12:23:28.037Z,19.45
2023-04-23T12:24:28.048Z,19.49
2023-04-23T12:25:28.083Z,19.45
2023-04-23T12:26:28.121Z,19.38
2023-04-23T12:27:28.143Z,19.43
2023-04-23T12:28:28.172Z,19.42
2023-04-23T12:29:28.231Z,19.17
2023-04-23T12:30:28.237Z,19.07
2023-04-23T12:31:28.311Z,18.78
2023-04-23T12:32:28.371Z,18.79
2023-04-23T12:33:28.363Z,18.86
2023-04-23T12:34:28.441Z,18.89
2023-04-23T12:35:28.430Z,19.05
2023-04-23T12:36:28.477Z,19.17
2023-04-23T12:37:28.529Z,19.27
2023-04-23T12:38:28.541Z,19.35
2023-04-23T12:39:28.581Z,19.38
2023-04-23T12:40:28.602Z,19.35
2023-04-23T12:41:28.658Z,19.35
2023-04-23T12:42:28.681Z,19.43
2023-04-23T12:43:28.722Z,19.40
2023-04-23T12:44:28.745Z,19.34
2023-04-23T12:45:28.763Z,19.15
2023-04-23T12:46:28.834Z,19.16
2023-04-23T12:47:29.000Z,19.17
2023-04-23T12:48:28.891Z,18.94
2023-04-23T12:49:28.933Z,18.75
2023-04-23T12:50:28.965Z,18.97
2023-04-23T12:51:29.012Z,18.93
2023-04-23T12:52:29.070Z,19.21
2023-04-23T12:53:29.077Z,19.28
2023-04-23T12:54:29.113Z,19.30